PWSweather.com
Personal Weather Stations
Station Observations
KOMOKA2
Middlesex Centre, Komoka, ON N0L 1R0

Middlesex CentreKomoka, ON N0L 1R0

Lat: 42.9542444, Lon: -81.4348861

Elevation: 805

Station Type: Davis VP2 w/ Vue Console

Latest ConditionsUpdated 7:52:27 AM EDT Tuesday, Aug 21, 2018
Currently Today's Max Today's Min Today's Average
Temperature 71.0°F21.7°C 71.0°F21.7°C 69.5°F20.8°C 70.3°F21.3°C
Dew Point 68.0°F20.0°C 68.0°F20.0°C 65.0°F18.3°C 66.0°F18.9°C
Winds 1.0 mph N1.6 kmh N 4.0 mph -6.4 kmh - - 1.3 mph 2.1 kmh
Wind Gusts 5.0 mph8.0 kmh 8.0 mph12.9 kmh - -
Humidity 89% 89% 81% 86%
Pressure 29.83 in1010.2 mb 29.96 in1014.6 mb 29.82 in1009.8 mb -
Precipitation - 0.27 in6.9 mm - -
Hour Temp Dew Point Humidity Winds Wind Gusts Pressure Precip Precip Rate Daily Precip Total
07:52 AM 71.0°F21.7°C 68.0°F20.0°C 89% 1.0 mph N1.6 kmh N 5.0 mph8.0 kmh 29.83 in1010.2 mb 0.05 in1.3 mm 0.00 in0.0 mm 0.27 in6.9 mm
07:47 AM 71.0°F21.7°C 68.0°F20.0°C 89% 1.0 mph N1.6 kmh N 5.0 mph8.0 kmh 29.83 in1010.2 mb 0.05 in1.3 mm 0.00 in0.0 mm 0.27 in6.9 mm
07:42 AM 71.0°F21.7°C 68.0°F20.0°C 89% 1.0 mph N1.6 kmh N 4.0 mph6.4 kmh 29.83 in1010.2 mb 0.05 in1.3 mm 0.00 in0.0 mm 0.26 in6.6 mm
07:37 AM 70.9°F21.6°C 68.0°F20.0°C 89% 2.0 mph N3.2 kmh N 4.0 mph6.4 kmh 29.82 in1009.8 mb 0.05 in1.3 mm 0.00 in0.0 mm 0.26 in6.6 mm
07:32 AM 70.8°F21.6°C 68.0°F20.0°C 89% 2.0 mph N3.2 kmh N 4.0 mph6.4 kmh 29.83 in1010.2 mb 0.05 in1.3 mm 0.00 in0.0 mm 0.26 in6.6 mm
07:27 AM 70.8°F21.6°C 68.0°F20.0°C 89% Calm Calm 3.0 mph4.8 kmh 29.82 in1009.8 mb 0.05 in1.3 mm 0.00 in0.0 mm 0.26 in6.6 mm
07:22 AM 70.8°F21.6°C 68.0°F20.0°C 89% 3.0 mph N4.8 kmh N 5.0 mph8.0 kmh 29.82 in1009.8 mb 0.06 in1.5 mm 0.00 in0.0 mm 0.26 in6.6 mm
07:17 AM 70.7°F21.5°C 67.0°F19.4°C 89% 2.0 mph N3.2 kmh N 5.0 mph8.0 kmh 29.83 in1010.2 mb 0.06 in1.5 mm 0.12 in3.0 mm 0.25 in6.4 mm
07:12 AM 70.5°F21.4°C 67.0°F19.4°C 89% 1.0 mph N1.6 kmh N 5.0 mph8.0 kmh 29.83 in1010.2 mb 0.05 in1.3 mm 0.00 in0.0 mm 0.24 in6.1 mm
07:07 AM 70.5°F21.4°C 67.0°F19.4°C 89% Calm Calm 5.0 mph8.0 kmh 29.83 in1010.2 mb 0.05 in1.3 mm 0.12 in3.0 mm 0.24 in6.1 mm
07:02 AM 70.4°F21.3°C 67.0°F19.4°C 89% 1.0 mph N1.6 kmh N 3.0 mph4.8 kmh 29.84 in1010.5 mb 0.04 in1.0 mm 0.01 in0.3 mm 0.24 in6.1 mm
06:57 AM 70.4°F21.3°C 67.0°F19.4°C 89% 2.0 mph N3.2 kmh N 5.0 mph8.0 kmh 29.84 in1010.5 mb 0.03 in0.8 mm 0.00 in0.0 mm 0.23 in5.8 mm
06:52 AM 70.2°F21.2°C 67.0°F19.4°C 88% 1.0 mph N1.6 kmh N 5.0 mph8.0 kmh 29.84 in1010.5 mb 0.03 in0.8 mm 0.00 in0.0 mm 0.23 in5.8 mm
06:47 AM 70.2°F21.2°C 67.0°F19.4°C 88% Calm Calm 3.0 mph4.8 kmh 29.84 in1010.5 mb 0.03 in0.8 mm 0.12 in3.0 mm 0.23 in5.8 mm
06:42 AM 70.3°F21.3°C 67.0°F19.4°C 88% 2.0 mph N3.2 kmh N 3.0 mph4.8 kmh 29.84 in1010.5 mb 0.02 in0.5 mm 0.00 in0.0 mm 0.22 in5.6 mm
06:37 AM 70.4°F21.3°C 67.0°F19.4°C 88% 2.0 mph N3.2 kmh N 3.0 mph4.8 kmh 29.84 in1010.5 mb 0.02 in0.5 mm 0.00 in0.0 mm 0.22 in5.6 mm
06:32 AM 70.3°F21.3°C 67.0°F19.4°C 88% 1.0 mph N1.6 kmh N 3.0 mph4.8 kmh 29.85 in1010.8 mb 0.02 in0.5 mm 0.00 in0.0 mm 0.22 in5.6 mm
06:27 AM 70.3°F21.3°C 67.0°F19.4°C 88% 1.0 mph N1.6 kmh N 2.0 mph3.2 kmh 29.85 in1010.8 mb 0.02 in0.5 mm 0.00 in0.0 mm 0.21 in5.3 mm
06:22 AM 70.3°F21.3°C 67.0°F19.4°C 88% Calm Calm 3.0 mph4.8 kmh 29.85 in1010.8 mb 0.02 in0.5 mm 0.00 in0.0 mm 0.21 in5.3 mm
06:17 AM 70.3°F21.3°C 67.0°F19.4°C 88% Calm Calm 3.0 mph4.8 kmh 29.85 in1010.8 mb 0.02 in0.5 mm 0.00 in0.0 mm 0.21 in5.3 mm
06:12 AM 70.1°F21.2°C 67.0°F19.4°C 88% 1.0 mph N1.6 kmh N 3.0 mph4.8 kmh 29.86 in1011.2 mb 0.02 in0.5 mm 0.12 in3.0 mm 0.21 in5.3 mm
06:07 AM 70.0°F21.1°C 66.0°F18.9°C 88% 2.0 mph N3.2 kmh N 3.0 mph4.8 kmh 29.86 in1011.2 mb 0.01 in0.3 mm 0.12 in3.0 mm 0.20 in5.1 mm
06:02 AM 69.9°F21.1°C 66.0°F18.9°C 88% 1.0 mph N1.6 kmh N 4.0 mph6.4 kmh 29.86 in1011.2 mb 0.00 in0.0 mm 0.00 in0.0 mm 0.20 in5.1 mm
05:57 AM 69.9°F21.1°C 66.0°F18.9°C 88% 1.0 mph N1.6 kmh N 4.0 mph6.4 kmh 29.86 in1011.2 mb 0.00 in0.0 mm 0.00 in0.0 mm 0.20 in5.1 mm
05:52 AM 69.7°F20.9°C 66.0°F18.9°C 88% 1.0 mph N1.6 kmh N 4.0 mph6.4 kmh 29.86 in1011.2 mb 0.00 in0.0 mm 0.00 in0.0 mm 0.20 in5.1 mm
05:47 AM 69.7°F20.9°C 66.0°F18.9°C 88% 1.0 mph N1.6 kmh N 3.0 mph4.8 kmh 29.86 in1011.2 mb 0.00 in0.0 mm 0.00 in0.0 mm 0.20 in5.1 mm
05:42 AM 69.7°F20.9°C 66.0°F18.9°C 88% Calm Calm 3.0 mph4.8 kmh 29.86 in1011.2 mb 0.01 in0.3 mm 0.00 in0.0 mm 0.20 in5.1 mm
05:37 AM 69.7°F20.9°C 66.0°F18.9°C 88% 1.0 mph N1.6 kmh N 3.0 mph4.8 kmh 29.86 in1011.2 mb 0.02 in0.5 mm 0.00 in0.0 mm 0.20 in5.1 mm
05:32 AM 69.6°F20.9°C 66.0°F18.9°C 88% 1.0 mph N1.6 kmh N 4.0 mph6.4 kmh 29.86 in1011.2 mb 0.08 in2.0 mm 0.00 in0.0 mm 0.20 in5.1 mm
05:27 AM 69.6°F20.9°C 66.0°F18.9°C 88% 2.0 mph N3.2 kmh N 4.0 mph6.4 kmh 29.86 in1011.2 mb 0.14 in3.6 mm 0.00 in0.0 mm 0.20 in5.1 mm
05:22 AM 69.5°F20.8°C 66.0°F18.9°C 88% 1.0 mph N1.6 kmh N 4.0 mph6.4 kmh 29.86 in1011.2 mb 0.17 in4.3 mm 0.00 in0.0 mm 0.20 in5.1 mm
05:17 AM 69.5°F20.8°C 66.0°F18.9°C 88% 3.0 mph N4.8 kmh N 3.0 mph4.8 kmh 29.86 in1011.2 mb 0.19 in4.8 mm 0.00 in0.0 mm 0.20 in5.1 mm
05:12 AM 69.5°F20.8°C 66.0°F18.9°C 88% 2.0 mph N3.2 kmh N 5.0 mph8.0 kmh 29.87 in1011.5 mb 0.20 in5.1 mm 0.00 in0.0 mm 0.20 in5.1 mm
05:07 AM 69.5°F20.8°C 66.0°F18.9°C 88% 1.0 mph N1.6 kmh N 5.0 mph8.0 kmh 29.87 in1011.5 mb 0.20 in5.1 mm 0.00 in0.0 mm 0.20 in5.1 mm
05:02 AM 69.5°F20.8°C 66.0°F18.9°C 88% 1.0 mph N1.6 kmh N 3.0 mph4.8 kmh 29.87 in1011.5 mb 0.20 in5.1 mm 0.00 in0.0 mm 0.20 in5.1 mm
04:57 AM 69.5°F20.8°C 66.0°F18.9°C 88% 1.0 mph N1.6 kmh N 4.0 mph6.4 kmh 29.87 in1011.5 mb 0.20 in5.1 mm 0.00 in0.0 mm 0.20 in5.1 mm
04:52 AM 69.5°F20.8°C 66.0°F18.9°C 88% 1.0 mph N1.6 kmh N 4.0 mph6.4 kmh 29.87 in1011.5 mb 0.20 in5.1 mm 0.00 in0.0 mm 0.20 in5.1 mm
04:47 AM 69.5°F20.8°C 66.0°F18.9°C 88% 1.0 mph N1.6 kmh N 2.0 mph3.2 kmh 29.87 in1011.5 mb 0.20 in5.1 mm 0.00 in0.0 mm 0.20 in5.1 mm
04:42 AM 69.5°F20.8°C 66.0°F18.9°C 88% Calm Calm 5.0 mph8.0 kmh 29.87 in1011.5 mb 0.20 in5.1 mm 0.00 in0.0 mm 0.20 in5.1 mm
04:37 AM 69.5°F20.8°C 66.0°F18.9°C 88% 1.0 mph N1.6 kmh N 8.0 mph12.9 kmh 29.88 in1011.9 mb 0.20 in5.1 mm 0.00 in0.0 mm 0.20 in5.1 mm
04:32 AM 69.5°F20.8°C 66.0°F18.9°C 88% 1.0 mph N1.6 kmh N 8.0 mph12.9 kmh 29.88 in1011.9 mb 0.20 in5.1 mm 0.12 in3.0 mm 0.20 in5.1 mm
04:27 AM 69.5°F20.8°C 66.0°F18.9°C 87% 1.0 mph N1.6 kmh N 6.0 mph9.7 kmh 29.89 in1012.2 mb 0.19 in4.8 mm 0.24 in6.1 mm 0.19 in4.8 mm
04:22 AM 69.5°F20.8°C 66.0°F18.9°C 87% 1.0 mph N1.6 kmh N 6.0 mph9.7 kmh 29.89 in1012.2 mb 0.17 in4.3 mm 0.60 in15.2 mm 0.17 in4.3 mm
04:17 AM 69.7°F20.9°C 66.0°F18.9°C 87% 2.0 mph N3.2 kmh N 5.0 mph8.0 kmh 29.89 in1012.2 mb 0.12 in3.0 mm 0.72 in18.3 mm 0.12 in3.0 mm
04:12 AM 69.9°F21.1°C 66.0°F18.9°C 86% 2.0 mph N3.2 kmh N 5.0 mph8.0 kmh 29.90 in1012.5 mb 0.06 in1.5 mm 0.48 in12.2 mm 0.06 in1.5 mm
04:07 AM 70.0°F21.1°C 66.0°F18.9°C 86% 4.0 mph N6.4 kmh N 4.0 mph6.4 kmh 29.89 in1012.2 mb 0.02 in0.5 mm 0.12 in3.0 mm 0.02 in0.5 mm
04:02 AM 70.0°F21.1°C 66.0°F18.9°C 86% 2.0 mph N3.2 kmh N 2.0 mph3.2 kmh 29.89 in1012.2 mb 0.01 in0.3 mm 0.01 in0.3 mm 0.01 in0.3 mm
03:57 AM 70.1°F21.2°C 66.0°F18.9°C 86% Calm Calm 2.0 mph3.2 kmh 29.89 in1012.2 mb 0.00 in0.0 mm 0.00 in0.0 mm 0.00 in0.0 mm
03:52 AM 70.1°F21.2°C 65.0°F18.3°C 85% Calm Calm 5.0 mph8.0 kmh 29.89 in1012.2 mb 0.00 in0.0 mm 0.00 in0.0 mm 0.00 in0.0 mm
03:47 AM 70.1°F21.2°C 65.0°F18.3°C 85% 4.0 mph N6.4 kmh N 5.0 mph8.0 kmh 29.89 in1012.2 mb 0.00 in0.0 mm 0.00 in0.0 mm 0.00 in0.0 mm
03:42 AM 70.1°F21.2°C 65.0°F18.3°C 85% Calm Calm 4.0 mph6.4 kmh 29.89 in1012.2 mb 0.00 in0.0 mm 0.00 in0.0 mm 0.00 in0.0 mm
03:37 AM 70.2°F21.2°C 66.0°F18.9°C 85% 1.0 mph N1.6 kmh N 4.0 mph6.4 kmh 29.89 in1012.2 mb 0.00 in0.0 mm 0.00 in0.0 mm 0.00 in0.0 mm
03:32 AM 70.2°F21.2°C 66.0°F18.9°C 85% 1.0 mph N1.6 kmh N 3.0 mph4.8 kmh 29.89 in1012.2 mb 0.00 in0.0 mm 0.00 in0.0 mm 0.00 in0.0 mm
03:27 AM 70.3°F21.3°C 66.0°F18.9°C 85% 3.0 mph N4.8 kmh N 3.0 mph4.8 kmh 29.89 in1012.2 mb 0.00 in0.0 mm 0.00 in0.0 mm 0.00 in0.0 mm
03:22 AM 70.2°F21.2°C 66.0°F18.9°C 85% 1.0 mph N1.6 kmh N 5.0 mph8.0 kmh 29.89 in1012.2 mb 0.00 in0.0 mm 0.00 in0.0 mm 0.00 in0.0 mm
03:17 AM 70.2°F21.2°C 66.0°F18.9°C 85% 2.0 mph N3.2 kmh N 5.0 mph8.0 kmh 29.90 in1012.5 mb 0.00 in0.0 mm 0.00 in0.0 mm 0.00 in0.0 mm
03:12 AM 70.1°F21.2°C 65.0°F18.3°C 85% 1.0 mph N1.6 kmh N 5.0 mph8.0 kmh 29.89 in1012.2 mb 0.00 in0.0 mm 0.00 in0.0 mm 0.00 in0.0 mm
03:07 AM 70.1°F21.2°C 65.0°F18.3°C 85% 1.0 mph N1.6 kmh N 4.0 mph6.4 kmh 29.90 in1012.5 mb 0.00 in0.0 mm 0.00 in0.0 mm 0.00 in0.0 mm
03:02 AM 70.1°F21.2°C 65.0°F18.3°C 85% 2.0 mph N3.2 kmh N 5.0 mph8.0 kmh 29.90 in1012.5 mb 0.00 in0.0 mm 0.00 in0.0 mm 0.00 in0.0 mm
02:57 AM 70.3°F21.3°C 66.0°F18.9°C 85% 1.0 mph N1.6 kmh N 5.0 mph8.0 kmh 29.90 in1012.5 mb 0.00 in0.0 mm 0.00 in0.0 mm 0.00 in0.0 mm
02:52 AM 70.3°F21.3°C 66.0°F18.9°C 85% 1.0 mph N1.6 kmh N 3.0 mph4.8 kmh 29.91 in1012.9 mb 0.00 in0.0 mm 0.00 in0.0 mm 0.00 in0.0 mm
02:47 AM 70.4°F21.3°C 66.0°F18.9°C 85% 1.0 mph N1.6 kmh N 4.0 mph6.4 kmh 29.91 in1012.9 mb 0.00 in0.0 mm 0.00 in0.0 mm 0.00 in0.0 mm
02:42 AM 70.5°F21.4°C 66.0°F18.9°C 84% 2.0 mph N3.2 kmh N 6.0 mph9.7 kmh 29.91 in1012.9 mb 0.00 in0.0 mm 0.00 in0.0 mm 0.00 in0.0 mm
02:37 AM 70.5°F21.4°C 66.0°F18.9°C 84% 3.0 mph N4.8 kmh N 6.0 mph9.7 kmh 29.91 in1012.9 mb 0.00 in0.0 mm 0.00 in0.0 mm 0.00 in0.0 mm
02:32 AM 70.6°F21.4°C 66.0°F18.9°C 84% Calm Calm 5.0 mph8.0 kmh 29.92 in1013.2 mb 0.00 in0.0 mm 0.00 in0.0 mm 0.00 in0.0 mm
02:27 AM 70.6°F21.4°C 66.0°F18.9°C 84% Calm Calm 5.0 mph8.0 kmh 29.91 in1012.9 mb 0.00 in0.0 mm 0.00 in0.0 mm 0.00 in0.0 mm
02:22 AM 70.6°F21.4°C 66.0°F18.9°C 84% Calm Calm 4.0 mph6.4 kmh 29.92 in1013.2 mb 0.00 in0.0 mm 0.00 in0.0 mm 0.00 in0.0 mm
02:17 AM 70.6°F21.4°C 66.0°F18.9°C 84% Calm Calm 4.0 mph6.4 kmh 29.92 in1013.2 mb 0.00 in0.0 mm 0.00 in0.0 mm 0.00 in0.0 mm
02:12 AM 70.5°F21.4°C 66.0°F18.9°C 84% 3.0 mph N4.8 kmh N 4.0 mph6.4 kmh 29.92 in1013.2 mb 0.00 in0.0 mm 0.00 in0.0 mm 0.00 in0.0 mm
02:07 AM 70.5°F21.4°C 66.0°F18.9°C 84% 1.0 mph N1.6 kmh N 3.0 mph4.8 kmh 29.92 in1013.2 mb 0.00 in0.0 mm 0.00 in0.0 mm 0.00 in0.0 mm
02:02 AM 70.4°F21.3°C 65.0°F18.3°C 84% Calm Calm 2.0 mph3.2 kmh 29.92 in1013.2 mb 0.00 in0.0 mm 0.00 in0.0 mm 0.00 in0.0 mm
01:57 AM 70.4°F21.3°C 65.0°F18.3°C 84% Calm Calm 4.0 mph6.4 kmh 29.92 in1013.2 mb 0.00 in0.0 mm 0.00 in0.0 mm 0.00 in0.0 mm
01:52 AM 70.4°F21.3°C 65.0°F18.3°C 84% 3.0 mph N4.8 kmh N 4.0 mph6.4 kmh 29.93 in1013.5 mb 0.00 in0.0 mm 0.00 in0.0 mm 0.00 in0.0 mm
01:47 AM 70.5°F21.4°C 66.0°F18.9°C 84% 1.0 mph N1.6 kmh N 4.0 mph6.4 kmh 29.93 in1013.5 mb 0.00 in0.0 mm 0.00 in0.0 mm 0.00 in0.0 mm
01:42 AM 70.5°F21.4°C 65.0°F18.3°C 83% Calm Calm 5.0 mph8.0 kmh 29.93 in1013.5 mb 0.00 in0.0 mm 0.00 in0.0 mm 0.00 in0.0 mm
01:37 AM 70.5°F21.4°C 65.0°F18.3°C 83% 1.0 mph N1.6 kmh N 7.0 mph11.3 kmh 29.93 in1013.5 mb 0.00 in0.0 mm 0.00 in0.0 mm 0.00 in0.0 mm
01:32 AM 70.5°F21.4°C 65.0°F18.3°C 83% 1.0 mph N1.6 kmh N 7.0 mph11.3 kmh 29.94 in1013.9 mb 0.00 in0.0 mm 0.00 in0.0 mm 0.00 in0.0 mm
01:27 AM 70.4°F21.3°C 65.0°F18.3°C 83% 1.0 mph N1.6 kmh N 5.0 mph8.0 kmh 29.94 in1013.9 mb 0.00 in0.0 mm 0.00 in0.0 mm 0.00 in0.0 mm
01:22 AM 70.5°F21.4°C 65.0°F18.3°C 83% 1.0 mph N1.6 kmh N 6.0 mph9.7 kmh 29.93 in1013.5 mb 0.00 in0.0 mm 0.00 in0.0 mm 0.00 in0.0 mm
01:17 AM 70.5°F21.4°C 65.0°F18.3°C 83% 1.0 mph N1.6 kmh N 7.0 mph11.3 kmh 29.94 in1013.9 mb 0.00 in0.0 mm 0.00 in0.0 mm 0.00 in0.0 mm
01:12 AM 70.5°F21.4°C 65.0°F18.3°C 83% 2.0 mph N3.2 kmh N 7.0 mph11.3 kmh 29.94 in1013.9 mb 0.00 in0.0 mm 0.00 in0.0 mm 0.00 in0.0 mm
01:07 AM 70.6°F21.4°C 65.0°F18.3°C 83% Calm Calm 7.0 mph11.3 kmh 29.94 in1013.9 mb 0.00 in0.0 mm 0.00 in0.0 mm 0.00 in0.0 mm
01:02 AM 70.6°F21.4°C 65.0°F18.3°C 83% 2.0 mph N3.2 kmh N 7.0 mph11.3 kmh 29.94 in1013.9 mb 0.00 in0.0 mm 0.00 in0.0 mm 0.00 in0.0 mm
12:57 AM 70.7°F21.5°C 65.0°F18.3°C 83% 1.0 mph N1.6 kmh N 5.0 mph8.0 kmh 29.95 in1014.2 mb 0.00 in0.0 mm 0.00 in0.0 mm 0.00 in0.0 mm
12:52 AM 70.7°F21.5°C 65.0°F18.3°C 83% 2.0 mph N3.2 kmh N 5.0 mph8.0 kmh 29.95 in1014.2 mb 0.00 in0.0 mm 0.00 in0.0 mm 0.00 in0.0 mm
12:47 AM 70.7°F21.5°C 65.0°F18.3°C 83% 1.0 mph N1.6 kmh N 8.0 mph12.9 kmh 29.95 in1014.2 mb 0.00 in0.0 mm 0.00 in0.0 mm 0.00 in0.0 mm
12:42 AM 70.7°F21.5°C 65.0°F18.3°C 83% 2.0 mph N3.2 kmh N 8.0 mph12.9 kmh 29.95 in1014.2 mb 0.00 in0.0 mm 0.00 in0.0 mm 0.00 in0.0 mm
12:37 AM 70.6°F21.4°C 65.0°F18.3°C 82% 1.0 mph N1.6 kmh N 4.0 mph6.4 kmh 29.95 in1014.2 mb 0.00 in0.0 mm 0.00 in0.0 mm 0.00 in0.0 mm
12:32 AM 70.8°F21.6°C 65.0°F18.3°C 82% 2.0 mph N3.2 kmh N 7.0 mph11.3 kmh 29.95 in1014.2 mb 0.00 in0.0 mm 0.00 in0.0 mm 0.00 in0.0 mm
12:27 AM 70.8°F21.6°C 65.0°F18.3°C 82% 1.0 mph N1.6 kmh N 7.0 mph11.3 kmh 29.95 in1014.2 mb 0.00 in0.0 mm 0.00 in0.0 mm 0.00 in0.0 mm
12:22 AM 70.9°F21.6°C 65.0°F18.3°C 82% 2.0 mph N3.2 kmh N 4.0 mph6.4 kmh 29.95 in1014.2 mb 0.00 in0.0 mm 0.00 in0.0 mm 0.00 in0.0 mm
12:17 AM 71.0°F21.7°C 65.0°F18.3°C 81% 2.0 mph N3.2 kmh N 6.0 mph9.7 kmh 29.95 in1014.2 mb 0.00 in0.0 mm 0.00 in0.0 mm 0.00 in0.0 mm
12:12 AM 70.9°F21.6°C 65.0°F18.3°C 81% 1.0 mph N1.6 kmh N 6.0 mph9.7 kmh 29.96 in1014.6 mb 0.00 in0.0 mm 0.00 in0.0 mm 0.00 in0.0 mm
12:07 AM 70.8°F21.6°C 65.0°F18.3°C 81% 4.0 mph N6.4 kmh N 4.0 mph6.4 kmh 29.96 in1014.6 mb 0.00 in0.0 mm 0.00 in0.0 mm 0.00 in0.0 mm
12:02 AM 70.8°F21.6°C 65.0°F18.3°C 81% 2.0 mph N3.2 kmh N 5.0 mph8.0 kmh 29.96 in1014.6 mb 0.00 in0.0 mm 0.00 in0.0 mm 0.00 in0.0 mm